createdAt,value
2024-02-18T00:02:09.388Z,15.23
2024-02-18T00:04:36.019Z,13.73
2024-02-18T00:07:03.617Z,15.27
2024-02-18T00:09:31.002Z,13.95
2024-02-18T00:14:24.651Z,14.48
2024-02-18T00:16:51.338Z,15.35
2024-02-18T00:19:18.074Z,14.30
2024-02-18T00:21:44.864Z,15.00
2024-02-18T00:24:11.723Z,14.35
2024-02-18T00:26:48.917Z,14.45
2024-02-18T00:29:24.672Z,14.18
2024-02-18T00:31:51.277Z,16.25
2024-02-18T00:34:24.755Z,15.10
2024-02-18T00:36:52.758Z,15.15
2024-02-18T00:39:19.843Z,14.45
2024-02-18T00:41:46.460Z,15.40
2024-02-18T00:44:13.254Z,15.25
2024-02-18T00:46:47.517Z,14.75
2024-02-18T00:49:20.807Z,15.98
2024-02-18T00:51:47.625Z,15.65
2024-02-18T00:54:14.749Z,16.80
2024-02-18T00:56:41.434Z,14.57
2024-02-18T00:59:08.087Z,14.52
2024-02-18T01:01:34.975Z,16.13
2024-02-18T01:04:02.391Z,16.55
2024-02-18T01:11:22.295Z,14.45
2024-02-18T01:13:49.017Z,15.20
2024-02-18T01:16:15.786Z,15.63
2024-02-18T01:18:44.267Z,16.35
2024-02-18T01:21:11.985Z,15.38
2024-02-18T01:26:05.566Z,13.65
2024-02-18T01:28:32.112Z,14.23
2024-02-18T01:30:59.039Z,14.15
2024-02-18T01:33:25.715Z,15.00
2024-02-18T01:35:52.368Z,15.25
2024-02-18T01:38:18.991Z,15.23
2024-02-18T01:40:45.643Z,14.43
2024-02-18T01:43:14.448Z,13.98
2024-02-18T01:45:41.407Z,14.00
2024-02-18T01:48:09.270Z,14.70
2024-02-18T01:50:36.306Z,14.05
2024-02-18T01:53:04.273Z,13.63
2024-02-18T01:55:33.238Z,11.45
2024-02-18T01:58:01.432Z,11.90
2024-02-18T02:00:29.058Z,13.65
2024-02-18T02:02:55.841Z,12.27
2024-02-18T02:05:23.017Z,12.52
2024-02-18T02:07:53.020Z,11.48
2024-02-18T02:10:20.854Z,10.98
2024-02-18T02:12:48.399Z,11.75
2024-02-18T02:15:15.439Z,12.18
2024-02-18T02:17:42.071Z,11.02
2024-02-18T02:20:10.714Z,11.93
2024-02-18T02:22:38.757Z,11.10
2024-02-18T02:25:07.403Z,11.25
2024-02-18T02:27:41.789Z,10.20
2024-02-18T02:30:08.814Z,10.50
2024-02-18T02:32:38.420Z,9.70
2024-02-18T02:35:05.760Z,10.82
2024-02-18T02:37:32.510Z,10.10
2024-02-18T02:39:59.419Z,9.73
2024-02-18T02:42:26.387Z,10.02
2024-02-18T02:44:53.022Z,9.82
2024-02-18T02:47:19.631Z,9.52
2024-02-18T02:49:46.749Z,9.35
2024-02-18T02:52:13.439Z,9.48
2024-02-18T02:54:40.614Z,9.45
2024-02-18T02:57:07.540Z,9.05
2024-02-18T02:59:34.212Z,9.95
2024-02-18T03:02:00.975Z,9.95
2024-02-18T03:04:28.216Z,9.70
2024-02-18T03:06:55.029Z,9.48
2024-02-18T03:09:22.178Z,9.48
2024-02-18T03:11:49.110Z,9.82
2024-02-18T03:14:15.779Z,10.68
2024-02-18T03:16:42.598Z,9.95
2024-02-18T03:19:09.453Z,9.55
2024-02-18T03:21:36.465Z,9.88
2024-02-18T03:24:03.377Z,9.52
2024-02-18T03:26:30.966Z,9.95
2024-02-18T03:28:57.610Z,9.55
2024-02-18T03:31:24.208Z,9.20
2024-02-18T03:33:50.910Z,10.35
2024-02-18T03:36:17.673Z,10.40
2024-02-18T03:38:44.268Z,8.95
2024-02-18T03:41:10.952Z,9.48
2024-02-18T03:43:37.585Z,8.88
2024-02-18T03:46:04.427Z,8.98
2024-02-18T03:48:31.357Z,8.55
2024-02-18T03:50:58.275Z,8.05
2024-02-18T03:53:24.862Z,9.82
2024-02-18T03:55:51.791Z,9.60
2024-02-18T03:58:18.484Z,8.50
2024-02-18T04:00:48.024Z,8.70
2024-02-18T04:03:15.371Z,9.88
2024-02-18T04:05:45.471Z,9.35
2024-02-18T04:08:12.265Z,9.40
2024-02-18T04:10:38.954Z,8.95
2024-02-18T04:13:05.734Z,9.77
2024-02-18T04:15:32.612Z,9.05
2024-02-18T04:17:59.311Z,9.10
2024-02-18T04:20:26.010Z,9.35
2024-02-18T04:22:52.716Z,8.27
2024-02-18T04:25:19.304Z,8.30
2024-02-18T04:27:46.037Z,9.57
2024-02-18T04:30:13.016Z,9.05
2024-02-18T04:32:39.612Z,9.52
2024-02-18T04:35:06.558Z,10.07
2024-02-18T04:37:33.330Z,10.20
2024-02-18T04:40:00.089Z,9.35
2024-02-18T04:42:26.762Z,10.07
2024-02-18T04:44:53.367Z,8.55
2024-02-18T04:47:20.034Z,9.18
2024-02-18T04:49:46.942Z,9.07
2024-02-18T04:52:13.734Z,8.90
2024-02-18T04:54:40.894Z,9.07
2024-02-18T04:57:08.376Z,9.55
2024-02-18T04:59:37.975Z,9.82
2024-02-18T05:02:04.806Z,9.13
2024-02-18T05:04:32.964Z,9.63
2024-02-18T05:07:00.768Z,9.75
2024-02-18T05:09:27.684Z,9.80
2024-02-18T05:11:54.334Z,9.30
2024-02-18T05:14:21.468Z,10.00
2024-02-18T05:16:48.196Z,10.93
2024-02-18T05:19:15.630Z,9.88
2024-02-18T05:24:11.346Z,9.30
2024-02-18T05:26:37.915Z,9.70
2024-02-18T05:29:04.690Z,10.00
2024-02-18T05:31:31.445Z,9.82
2024-02-18T05:33:58.510Z,10.52
2024-02-18T05:36:25.353Z,11.07
2024-02-18T05:38:52.181Z,9.50
2024-02-18T05:41:19.220Z,9.65
2024-02-18T05:43:45.785Z,10.75
2024-02-18T05:46:12.552Z,11.68
2024-02-18T05:48:40.322Z,10.27
2024-02-18T05:51:07.981Z,10.57
2024-02-18T05:53:35.138Z,10.15
2024-02-18T05:56:02.357Z,9.65
2024-02-18T05:58:28.956Z,9.15
2024-02-18T06:00:55.618Z,9.98
2024-02-18T06:03:22.559Z,9.95
2024-02-18T06:05:49.431Z,10.10
2024-02-18T06:08:16.087Z,9.85
2024-02-18T06:10:42.938Z,9.48
2024-02-18T06:13:09.791Z,9.30
2024-02-18T06:15:36.568Z,10.18
2024-02-18T06:18:03.533Z,10.35
2024-02-18T06:20:30.668Z,9.60
2024-02-18T06:22:57.624Z,9.52
2024-02-18T06:25:24.720Z,8.88
2024-02-18T06:27:52.127Z,9.40
2024-02-18T06:32:46.085Z,9.13
2024-02-18T06:35:12.861Z,10.10
2024-02-18T06:37:40.820Z,9.55
2024-02-18T06:40:08.057Z,9.15
2024-02-18T06:42:34.797Z,9.45
2024-02-18T06:45:01.439Z,9.63
2024-02-18T06:47:28.148Z,10.02
2024-02-18T06:49:54.942Z,9.43
2024-02-18T06:52:23.040Z,10.13
2024-02-18T06:54:49.962Z,9.50
2024-02-18T06:57:16.643Z,9.05
2024-02-18T06:59:43.628Z,9.95
2024-02-18T07:02:11.251Z,9.30
2024-02-18T07:04:38.906Z,9.52
2024-02-18T07:07:05.508Z,9.52
2024-02-18T07:09:32.245Z,9.65
2024-02-18T07:11:58.921Z,10.05
2024-02-18T07:14:25.492Z,9.23
2024-02-18T07:16:52.070Z,9.05
2024-02-18T07:19:18.873Z,10.00
2024-02-18T07:21:45.608Z,9.15
2024-02-18T07:24:12.251Z,9.75
2024-02-18T07:26:39.934Z,9.68
2024-02-18T07:29:06.627Z,8.50
2024-02-18T07:31:33.213Z,9.50
2024-02-18T07:34:00.048Z,9.05
2024-02-18T07:36:28.825Z,9.25
2024-02-18T07:38:57.200Z,8.20
2024-02-18T07:41:26.297Z,8.18
2024-02-18T07:43:53.179Z,9.45
2024-02-18T07:46:20.308Z,9.13
2024-02-18T07:48:47.087Z,9.18
2024-02-18T07:51:13.886Z,9.13
2024-02-18T07:53:40.496Z,7.82
2024-02-18T07:56:07.486Z,9.57
2024-02-18T07:58:34.056Z,8.30
2024-02-18T08:01:00.828Z,7.72
2024-02-18T08:03:27.575Z,8.48
2024-02-18T08:05:54.184Z,9.27
2024-02-18T08:08:20.914Z,9.90
2024-02-18T08:10:48.405Z,9.80
2024-02-18T08:13:15.206Z,8.35
2024-02-18T08:15:41.946Z,9.35
2024-02-18T08:18:10.067Z,8.70
2024-02-18T08:20:41.599Z,7.72
2024-02-18T08:23:08.923Z,8.02
2024-02-18T08:25:36.712Z,7.47
2024-02-18T08:28:03.682Z,8.02
2024-02-18T08:30:30.592Z,7.28
2024-02-18T08:32:57.367Z,7.57
2024-02-18T08:35:24.435Z,7.75
2024-02-18T08:37:54.061Z,7.43
2024-02-18T08:40:20.835Z,7.00
2024-02-18T08:42:47.509Z,7.28
2024-02-18T08:45:14.266Z,6.88
2024-02-18T08:47:40.979Z,7.35
2024-02-18T08:50:08.231Z,7.05
2024-02-18T08:52:34.935Z,7.35
2024-02-18T08:55:01.581Z,6.70
2024-02-18T08:57:28.209Z,7.38
2024-02-18T08:59:54.879Z,6.90
2024-02-18T09:02:22.137Z,7.10
2024-02-18T09:07:15.797Z,6.15
2024-02-18T09:09:42.416Z,6.35
2024-02-18T09:12:09.096Z,7.00
2024-02-18T09:14:35.737Z,6.15
2024-02-18T09:17:03.348Z,7.10
2024-02-18T09:19:30.020Z,6.95
2024-02-18T09:21:56.725Z,5.97
2024-02-18T09:24:23.295Z,5.78
2024-02-18T09:26:49.883Z,6.90
2024-02-18T09:29:16.512Z,6.05
2024-02-18T09:31:43.832Z,6.38
2024-02-18T09:34:10.685Z,6.25
2024-02-18T09:36:37.448Z,6.18
2024-02-18T09:39:04.139Z,5.32
2024-02-18T09:41:32.300Z,5.18
2024-02-18T09:44:07.261Z,5.28
2024-02-18T09:46:38.516Z,4.78
2024-02-18T09:49:09.197Z,5.68
2024-02-18T09:51:36.938Z,4.68
2024-02-18T09:54:07.994Z,4.07
2024-02-18T09:56:34.772Z,2.70
2024-02-18T09:59:01.388Z,1.52
2024-02-18T10:01:28.676Z,1.90
2024-02-18T10:03:55.544Z,1.10
2024-02-18T10:06:22.365Z,1.88
2024-02-18T10:08:56.549Z,1.48
2024-02-18T10:11:23.839Z,1.23
2024-02-18T10:13:53.849Z,1.88
2024-02-18T10:16:20.537Z,1.70
2024-02-18T10:18:47.419Z,2.17
2024-02-18T10:21:15.792Z,2.53
2024-02-18T10:23:43.446Z,1.70
2024-02-18T10:26:12.988Z,1.50
2024-02-18T10:28:42.627Z,1.83
2024-02-18T10:31:10.976Z,1.90
2024-02-18T10:36:10.971Z,2.45
2024-02-18T10:38:43.753Z,2.17
2024-02-18T10:41:31.434Z,3.92
2024-02-18T10:44:00.228Z,4.63
2024-02-18T10:46:28.202Z,4.43
2024-02-18T10:49:01.025Z,5.35
2024-02-18T10:51:40.769Z,4.22
2024-02-18T10:54:12.882Z,4.20
2024-02-18T10:56:41.868Z,4.15
2024-02-18T10:59:23.364Z,3.25
2024-02-18T11:01:56.862Z,2.85
2024-02-18T11:04:26.332Z,2.38
2024-02-18T11:06:55.205Z,2.67
2024-02-18T11:09:23.133Z,2.72
2024-02-18T11:11:52.077Z,3.00
2024-02-18T11:14:20.004Z,3.33
2024-02-18T11:16:48.867Z,3.63
2024-02-18T11:19:16.423Z,3.20
2024-02-18T11:21:48.712Z,3.25
2024-02-18T11:24:15.354Z,3.50
2024-02-18T11:26:41.956Z,4.13
2024-02-18T11:29:08.651Z,3.28
2024-02-18T11:31:35.696Z,3.55
2024-02-18T11:34:02.709Z,3.88
2024-02-18T11:38:58.684Z,4.03
2024-02-18T11:41:33.375Z,3.72
2024-02-18T11:44:13.963Z,3.92
2024-02-18T11:46:42.909Z,3.55
2024-02-18T11:49:09.876Z,3.78
2024-02-18T11:54:06.455Z,3.75
2024-02-18T11:56:33.350Z,3.28
2024-02-18T11:59:00.025Z,3.72
2024-02-18T12:01:27.761Z,4.07
2024-02-18T12:03:58.186Z,3.88
2024-02-18T12:06:25.628Z,4.25
2024-02-18T12:08:52.451Z,3.78
2024-02-18T12:11:19.146Z,3.22
2024-02-18T12:13:45.942Z,3.50
2024-02-18T12:16:12.977Z,3.78
2024-02-18T12:18:40.260Z,4.00
2024-02-18T12:23:43.975Z,4.00
2024-02-18T12:26:10.741Z,3.53
2024-02-18T12:28:37.525Z,3.78
2024-02-18T12:31:04.270Z,3.30
2024-02-18T12:33:32.109Z,3.75
2024-02-18T12:35:59.137Z,3.42
2024-02-18T12:38:25.738Z,3.95
2024-02-18T12:40:56.883Z,4.25
2024-02-18T12:43:57.003Z,4.00
2024-02-18T12:46:13.320Z,3.90
2024-02-18T12:48:40.714Z,3.50
2024-02-18T12:51:15.382Z,3.83
2024-02-18T12:53:43.042Z,3.60
2024-02-18T12:56:11.117Z,3.97
2024-02-18T12:58:37.961Z,3.78
2024-02-18T13:01:09.458Z,3.42
2024-02-18T13:03:36.706Z,3.85
2024-02-18T13:06:04.112Z,3.17
2024-02-18T13:08:30.926Z,3.58
2024-02-18T13:10:58.466Z,3.92
2024-02-18T13:13:25.172Z,4.05
2024-02-18T13:15:53.245Z,4.07
2024-02-18T13:18:20.074Z,4.90
2024-02-18T13:20:46.806Z,4.10
2024-02-18T13:23:13.403Z,4.53
2024-02-18T13:25:40.134Z,3.75
2024-02-18T13:28:07.044Z,3.65
2024-02-18T13:30:33.879Z,3.70
2024-02-18T13:33:00.700Z,3.55
2024-02-18T13:35:27.310Z,3.88
2024-02-18T13:37:53.935Z,3.60
2024-02-18T13:40:20.723Z,5.38
2024-02-18T13:42:47.420Z,3.97
2024-02-18T13:45:14.164Z,3.78
2024-02-18T13:47:40.932Z,3.80
2024-02-18T13:50:09.058Z,3.80
2024-02-18T13:52:35.762Z,4.22
2024-02-18T13:55:02.952Z,4.40
2024-02-18T13:57:29.651Z,4.03
2024-02-18T13:59:57.815Z,3.88
2024-02-18T14:02:24.709Z,3.63
2024-02-18T14:04:52.577Z,3.50
2024-02-18T14:07:21.406Z,3.95
2024-02-18T14:09:50.068Z,3.85
2024-02-18T14:12:17.140Z,4.25
2024-02-18T14:14:49.440Z,3.67
2024-02-18T14:17:16.571Z,4.25
2024-02-18T14:19:43.495Z,3.65
2024-02-18T14:22:10.458Z,3.75
2024-02-18T14:24:37.296Z,3.80
2024-02-18T14:27:04.599Z,3.95
2024-02-18T14:29:31.317Z,3.78
2024-02-18T14:31:57.910Z,4.03
2024-02-18T14:34:24.660Z,4.05
2024-02-18T14:36:51.430Z,4.35
2024-02-18T14:39:18.171Z,4.32
2024-02-18T14:41:44.812Z,3.42
2024-02-18T14:44:11.489Z,4.00
2024-02-18T14:46:38.088Z,3.75
2024-02-18T14:49:04.780Z,3.70
2024-02-18T14:51:31.542Z,3.63
2024-02-18T14:53:58.197Z,3.90
2024-02-18T14:56:24.856Z,4.10
2024-02-18T14:58:51.437Z,4.25
2024-02-18T15:01:20.029Z,3.47
2024-02-18T15:03:46.885Z,3.35
2024-02-18T15:06:14.013Z,3.28
2024-02-18T15:08:40.939Z,3.70
2024-02-18T15:11:07.814Z,3.35
2024-02-18T15:13:34.529Z,3.83
2024-02-18T15:16:01.103Z,3.72
2024-02-18T15:18:27.903Z,3.97
2024-02-18T15:20:54.582Z,3.80
2024-02-18T15:23:21.430Z,3.33
2024-02-18T15:25:52.234Z,3.70
2024-02-18T15:28:19.311Z,3.47
2024-02-18T15:30:46.813Z,3.30
2024-02-18T15:33:13.605Z,3.13
2024-02-18T15:35:41.429Z,2.70
2024-02-18T15:38:08.401Z,2.95
2024-02-18T15:40:35.195Z,3.45
2024-02-18T15:43:02.539Z,3.00
2024-02-18T15:45:29.405Z,3.33
2024-02-18T15:47:57.465Z,3.20
2024-02-18T15:50:24.553Z,3.47
2024-02-18T15:52:51.361Z,3.42
2024-02-18T15:55:20.135Z,3.75
2024-02-18T15:57:47.125Z,3.65
2024-02-18T16:00:15.005Z,4.25
2024-02-18T16:02:41.672Z,3.95
2024-02-18T16:05:08.928Z,4.47
2024-02-18T16:07:35.681Z,6.07
2024-02-18T16:10:02.596Z,5.45
2024-02-18T16:12:29.336Z,5.07
2024-02-18T16:14:55.917Z,4.55
2024-02-18T16:17:25.021Z,4.78
2024-02-18T16:19:53.139Z,4.95
2024-02-18T16:22:19.982Z,5.57
2024-02-18T16:24:48.287Z,5.90
2024-02-18T16:27:14.982Z,7.80
2024-02-18T16:29:41.645Z,6.60
2024-02-18T16:32:10.471Z,7.53
2024-02-18T16:34:37.243Z,7.88
2024-02-18T16:37:04.259Z,8.25
2024-02-18T16:39:36.054Z,9.35
2024-02-18T16:42:04.060Z,10.85
2024-02-18T16:44:30.900Z,8.68
2024-02-18T16:46:57.657Z,8.93
2024-02-18T16:49:24.421Z,10.93
2024-02-18T16:51:51.128Z,11.43
2024-02-18T16:54:17.873Z,10.35
2024-02-18T16:56:44.446Z,11.20
2024-02-18T16:59:11.010Z,10.93
2024-02-18T17:01:37.782Z,10.82
2024-02-18T17:04:04.717Z,11.50
2024-02-18T17:06:31.718Z,12.23
2024-02-18T17:08:58.376Z,12.32
2024-02-18T17:11:24.992Z,11.65
2024-02-18T17:13:53.241Z,12.18
2024-02-18T17:16:20.097Z,11.55
2024-02-18T17:18:46.924Z,11.40
2024-02-18T17:21:13.601Z,11.00
2024-02-18T17:23:40.139Z,11.15
2024-02-18T17:26:06.855Z,11.20
2024-02-18T17:28:33.517Z,11.82
2024-02-18T17:31:00.287Z,11.23
2024-02-18T17:33:28.780Z,11.98
2024-02-18T17:35:55.520Z,11.02
2024-02-18T17:38:22.161Z,11.43
2024-02-18T17:40:48.847Z,11.55
2024-02-18T17:43:15.576Z,11.43
2024-02-18T17:45:42.456Z,11.32
2024-02-18T17:48:09.761Z,11.95
2024-02-18T17:50:39.711Z,11.25
2024-02-18T17:53:08.070Z,11.65
2024-02-18T17:55:34.667Z,10.52
2024-02-18T17:58:01.576Z,12.35
2024-02-18T18:00:29.289Z,11.55
2024-02-18T18:02:58.116Z,11.13
2024-02-18T18:05:24.881Z,11.40
2024-02-18T18:07:55.747Z,10.98
2024-02-18T18:10:23.823Z,11.05
2024-02-18T18:12:55.758Z,12.43
2024-02-18T18:15:23.663Z,12.65
2024-02-18T18:17:50.648Z,13.43
2024-02-18T18:20:17.663Z,14.20
2024-02-18T18:22:49.059Z,14.25
2024-02-18T18:25:16.366Z,12.27
2024-02-18T18:27:43.415Z,12.75
2024-02-18T18:30:10.412Z,10.80
2024-02-18T18:32:37.296Z,11.65
2024-02-18T18:35:05.488Z,13.45
2024-02-18T18:37:32.683Z,13.23
2024-02-18T18:40:00.610Z,13.88
2024-02-18T18:42:28.492Z,11.70
2024-02-18T18:44:55.096Z,10.88
2024-02-18T18:47:21.714Z,10.50
2024-02-18T18:49:52.658Z,11.30
2024-02-18T18:52:19.604Z,10.10
2024-02-18T18:54:46.347Z,9.40
2024-02-18T18:57:14.081Z,8.80
2024-02-18T18:59:40.947Z,8.75
2024-02-18T19:02:07.832Z,9.10
2024-02-18T19:04:34.636Z,9.18
2024-02-18T19:07:04.345Z,8.02
2024-02-18T19:09:34.489Z,8.98
2024-02-18T19:12:01.460Z,8.13
2024-02-18T19:14:28.605Z,9.27
2024-02-18T19:16:55.909Z,8.30
2024-02-18T19:19:25.613Z,8.95
2024-02-18T19:22:00.286Z,8.75
2024-02-18T19:24:27.902Z,8.13
2024-02-18T19:26:54.518Z,8.35
2024-02-18T19:29:24.116Z,8.43
2024-02-18T19:31:55.454Z,7.70
2024-02-18T19:34:22.271Z,7.50
2024-02-18T19:36:51.620Z,8.30
2024-02-18T19:39:18.751Z,8.52
2024-02-18T19:41:47.178Z,7.00
2024-02-18T19:44:14.674Z,8.52
2024-02-18T19:49:12.755Z,7.13
2024-02-18T19:51:48.885Z,7.82
2024-02-18T19:54:15.948Z,7.28
2024-02-18T19:56:43.637Z,7.50
2024-02-18T19:59:12.055Z,7.07
2024-02-18T20:01:38.988Z,7.47
2024-02-18T20:04:05.816Z,7.47
2024-02-18T20:06:32.638Z,7.60
2024-02-18T20:08:59.789Z,7.85
2024-02-18T20:11:29.777Z,6.95
2024-02-18T20:13:58.131Z,7.10
2024-02-18T20:16:24.822Z,6.75
2024-02-18T20:18:53.074Z,7.88
2024-02-18T20:21:20.637Z,8.38
2024-02-18T20:23:47.301Z,7.88
2024-02-18T20:26:20.411Z,8.73
2024-02-18T20:28:48.008Z,8.07
2024-02-18T20:31:21.286Z,8.02
2024-02-18T20:33:49.306Z,7.63
2024-02-18T20:36:17.800Z,8.32
2024-02-18T20:38:45.845Z,8.13
2024-02-18T20:41:13.036Z,7.45
2024-02-18T20:43:39.645Z,7.88
2024-02-18T20:46:06.431Z,7.40
2024-02-18T20:48:33.224Z,8.43
2024-02-18T20:50:59.888Z,7.22
2024-02-18T20:53:26.500Z,7.43
2024-02-18T20:55:53.043Z,7.57
2024-02-18T20:58:21.075Z,7.45
2024-02-18T21:00:48.460Z,6.97
2024-02-18T21:03:15.834Z,7.50
2024-02-18T21:05:43.660Z,7.53
2024-02-18T21:08:10.284Z,6.65
2024-02-18T21:10:36.966Z,6.68
2024-02-18T21:13:04.108Z,8.10
2024-02-18T21:15:30.823Z,7.45
2024-02-18T21:18:00.244Z,7.45
2024-02-18T21:20:27.285Z,7.65
2024-02-18T21:22:54.160Z,7.28
2024-02-18T21:25:21.287Z,6.82
2024-02-18T21:27:47.972Z,6.00
2024-02-18T21:30:14.802Z,6.80
2024-02-18T21:32:41.485Z,6.63
2024-02-18T21:35:08.500Z,6.78
2024-02-18T21:37:38.538Z,6.55
2024-02-18T21:40:07.193Z,6.82
2024-02-18T21:42:35.676Z,6.97
2024-02-18T21:45:02.686Z,6.82
2024-02-18T21:47:29.350Z,6.93
2024-02-18T21:49:56.237Z,8.43
2024-02-18T21:52:23.180Z,9.88
2024-02-18T21:54:51.115Z,10.35
2024-02-18T21:57:20.917Z,9.57
2024-02-18T21:59:47.492Z,9.55
2024-02-18T22:02:14.248Z,9.50
2024-02-18T22:04:41.200Z,9.73
2024-02-18T22:07:16.302Z,8.18
2024-02-18T22:09:45.717Z,8.07
2024-02-18T22:12:12.745Z,10.43
2024-02-18T22:14:39.388Z,7.30
2024-02-18T22:17:07.548Z,7.15
2024-02-18T22:19:34.543Z,6.95
2024-02-18T22:22:01.560Z,9.38
2024-02-18T22:24:28.692Z,8.05
2024-02-18T22:26:55.503Z,8.18
2024-02-18T22:29:22.472Z,8.68
2024-02-18T22:31:49.001Z,6.70
2024-02-18T22:34:18.750Z,6.72
2024-02-18T22:36:45.581Z,6.80
2024-02-18T22:39:13.529Z,7.18
2024-02-18T22:41:42.891Z,6.82
2024-02-18T22:44:09.486Z,7.45
2024-02-18T22:46:36.123Z,6.68
2024-02-18T22:49:03.168Z,6.55
2024-02-18T22:51:29.932Z,6.78
2024-02-18T22:53:56.593Z,6.38
2024-02-18T22:56:23.211Z,6.50
2024-02-18T22:58:50.507Z,6.65
2024-02-18T23:01:17.142Z,6.85
2024-02-18T23:03:43.869Z,6.80
2024-02-18T23:06:10.555Z,7.35
2024-02-18T23:08:40.726Z,9.20
2024-02-18T23:11:09.027Z,8.10
2024-02-18T23:13:35.900Z,8.30
2024-02-18T23:16:02.736Z,9.35
2024-02-18T23:18:29.488Z,9.43
2024-02-18T23:20:56.231Z,8.13
2024-02-18T23:23:22.849Z,8.45
2024-02-18T23:25:49.479Z,9.07
2024-02-18T23:28:16.215Z,9.07
2024-02-18T23:30:43.126Z,8.23
2024-02-18T23:33:09.927Z,7.88
2024-02-18T23:35:36.521Z,8.82
2024-02-18T23:38:05.226Z,7.43
2024-02-18T23:40:33.044Z,7.78
2024-02-18T23:43:00.022Z,7.43
2024-02-18T23:45:26.683Z,7.40
2024-02-18T23:47:53.322Z,6.32
2024-02-18T23:50:19.900Z,6.95
2024-02-18T23:52:46.539Z,6.60
2024-02-18T23:55:13.218Z,6.50
2024-02-18T23:57:39.859Z,6.03
